Time;durP1;ratioP1;P1;durP2;ratioP2;P2;SDS_P1;SDS_P2;PMS_P1;PMS_P2;Temp;Humidity;BMP_temperature;BMP_pressure;BME280_temperature;BME280_humidity;BME280_pressure;Samples;Min_cycle;Max_cycle;Signal;HPM_P1;HPM_P2
2022/02/13 00:02:29;;;;;;;12.45;6.45;;;;;;;1.95;83.83;101792.53;5220458;28;20029;-75
2022/02/13 00:05:00;;;;;;;12.15;5.82;;;;;;;2.03;84.04;101810.38;5220367;28;20387;-74
2022/02/13 00:07:33;;;;;;;10.43;5.82;;;;;;;2.02;84.30;101816.44;5221485;28;20029;-74
2022/02/13 00:10:07;;;;;;;13.57;5.93;;;;;;;1.98;84.65;101795.03;5219925;28;20025;-74
2022/02/13 00:12:39;;;;;;;13.25;6.63;;;;;;;1.91;84.40;101796.97;5219359;28;20060;-74
2022/02/13 00:15:10;;;;;;;12.68;5.65;;;;;;;1.91;84.67;101799.53;5221821;28;20112;-74
2022/02/13 00:17:41;;;;;;;13.27;6.25;;;;;;;1.90;85.10;101807.34;5219010;28;20025;-74
2022/02/13 00:20:12;;;;;;;9.38;5.53;;;;;;;1.91;85.08;101806.44;5214258;28;20387;-74
2022/02/13 00:22:44;;;;;;;11.45;5.90;;;;;;;1.86;85.17;101800.59;5218101;28;20507;-74
2022/02/13 00:25:15;;;;;;;11.48;6.40;;;;;;;1.83;85.49;101811.88;5217150;28;20045;-75
2022/02/13 00:27:47;;;;;;;12.30;6.07;;;;;;;1.80;85.64;101811.97;5217847;28;20596;-74
2022/02/13 00:30:19;;;;;;;11.68;6.15;;;;;;;1.80;85.76;101806.81;5221224;28;20261;-74
2022/02/13 00:32:51;;;;;;;13.48;6.10;;;;;;;1.75;86.19;101808.69;5217610;28;20036;-73
2022/02/13 00:35:22;;;;;;;13.30;6.57;;;;;;;1.74;86.60;101801.81;5218354;28;20041;-74
2022/02/13 00:37:54;;;;;;;15.13;6.35;;;;;;;1.72;86.93;101803.63;5219627;28;20030;-75
2022/02/13 00:40:25;;;;;;;12.90;6.10;;;;;;;1.71;87.13;101799.38;5218587;28;20053;-74
2022/02/13 00:42:56;;;;;;;12.75;6.57;;;;;;;1.68;86.89;101794.28;5220343;28;20229;-74
2022/02/13 00:45:28;;;;;;;11.48;6.45;;;;;;;1.67;87.12;101793.44;5217878;28;20024;-73
2022/02/13 00:47:59;;;;;;;10.05;6.07;;;;;;;1.65;87.52;101791.81;5218260;28;20030;-74
2022/02/13 00:50:31;;;;;;;11.00;6.07;;;;;;;1.63;87.53;101784.13;5217962;28;20025;-74
2022/02/13 00:53:05;;;;;;;10.63;6.13;;;;;;;1.65;88.78;101782.31;5208717;28;20025;-74
2022/02/13 00:55:36;;;;;;;18.95;6.72;;;;;;;1.60;88.80;101775.63;5218680;28;20029;-73
2022/02/13 00:58:07;;;;;;;14.13;6.28;;;;;;;1.60;88.96;101770.47;5218482;28;20036;-74
2022/02/13 01:00:39;;;;;;;12.05;6.00;;;;;;;1.59;89.14;101769.63;5218975;28;20036;-74
2022/02/13 01:03:10;;;;;;;12.13;6.68;;;;;;;1.58;89.14;101765.31;5218786;28;20034;-74
2022/02/13 01:05:41;;;;;;;10.27;5.82;;;;;;;1.58;89.78;101759.31;5216593;28;20025;-74
2022/02/13 01:08:12;;;;;;;11.50;5.95;;;;;;;1.57;89.54;101761.06;5219501;28;20025;-73
2022/02/13 01:10:44;;;;;;;15.27;5.88;;;;;;;1.54;89.02;101747.41;5216311;28;20079;-74
2022/02/13 01:13:16;;;;;;;14.40;6.43;;;;;;;1.56;90.05;101751.63;5217358;28;20625;-75
2022/02/13 01:15:48;;;;;;;9.65;5.80;;;;;;;1.51;90.54;101750.06;5215926;28;20042;-75
2022/02/13 01:18:19;;;;;;;10.98;6.00;;;;;;;1.52;89.73;101750.03;5221020;28;20041;-74
2022/02/13 01:20:51;;;;;;;11.70;6.47;;;;;;;1.54;89.80;101743.06;5217116;28;20049;-74
2022/02/13 01:23:22;;;;;;;12.05;5.97;;;;;;;1.56;89.56;101748.22;5219030;28;20029;-74
2022/02/13 01:25:54;;;;;;;12.68;6.35;;;;;;;1.51;89.72;101743.16;5219203;28;20029;-75
2022/02/13 01:28:25;;;;;;;11.07;5.97;;;;;;;1.52;90.36;101738.88;5218048;28;20021;-74
2022/02/13 01:31:00;;;;;;;13.32;6.80;;;;;;;1.52;89.79;101728.53;5218984;28;20087;-74
2022/02/13 01:33:33;;;;;;;12.60;5.85;;;;;;;1.49;90.43;101714.00;5219799;28;20484;-73
2022/02/13 01:36:05;;;;;;;11.65;5.50;;;;;;;1.53;89.96;101713.00;5218372;28;20041;-73
2022/02/13 01:38:36;;;;;;;14.27;6.32;;;;;;;1.51;90.28;101713.91;5220317;28;20477;-73
2022/02/13 01:41:08;;;;;;;10.15;5.65;;;;;;;1.50;90.24;101715.66;5217099;28;20036;-73
2022/02/13 01:43:39;;;;;;;12.15;6.38;;;;;;;1.49;90.03;101707.97;5219289;28;20038;-73
2022/02/13 01:46:10;;;;;;;10.70;6.03;;;;;;;1.51;90.17;101699.25;5217341;28;20040;-73
2022/02/13 01:48:42;;;;;;;10.50;6.00;;;;;;;1.50;90.40;101694.16;5220202;28;20518;-73
2022/02/13 01:51:13;;;;;;;11.95;6.13;;;;;;;1.49;90.16;101693.31;5224771;28;20030;-73
2022/02/13 01:53:44;;;;;;;13.25;5.88;;;;;;;1.48;90.40;101696.81;5224563;28;20025;-73
2022/02/13 01:56:16;;;;;;;10.73;6.18;;;;;;;1.45;89.43;101679.69;5221847;28;20076;-73
2022/02/13 01:58:48;;;;;;;11.05;5.82;;;;;;;1.48;90.25;101673.56;5223404;28;20025;-73
2022/02/13 02:01:19;;;;;;;9.73;5.78;;;;;;;1.49;89.95;101679.56;5221957;28;20029;-73
2022/02/13 02:03:50;;;;;;;12.75;5.70;;;;;;;1.46;89.89;101673.59;5222223;28;20051;-73
2022/02/13 02:06:21;;;;;;;10.35;5.68;;;;;;;1.48;90.14;101670.13;5222012;28;20029;-73
2022/02/13 02:08:53;;;;;;;11.50;5.43;;;;;;;1.48;89.79;101664.97;5223585;28;20057;-73
2022/02/13 02:11:24;;;;;;;10.85;5.63;;;;;;;1.43;90.31;101657.38;5221268;28;20022;-73
2022/02/13 02:13:55;;;;;;;11.10;5.68;;;;;;;1.42;89.74;101663.44;5221079;28;20033;-73
2022/02/13 02:16:27;;;;;;;10.07;6.03;;;;;;;1.41;89.89;101649.69;5219911;28;20151;-73
2022/02/13 02:18:59;;;;;;;11.35;5.80;;;;;;;1.39;90.20;101650.63;5218647;28;20049;-73
2022/02/13 02:21:30;;;;;;;9.35;5.70;;;;;;;1.36;90.50;101654.16;5210846;28;20128;-73
2022/02/13 02:24:02;;;;;;;11.98;5.80;;;;;;;1.41;89.83;101648.84;5221411;28;20025;-73
2022/02/13 02:26:35;;;;;;;11.25;5.78;;;;;;;1.41;89.64;101654.00;5205134;28;20080;-73
2022/02/13 02:29:06;;;;;;;8.98;5.35;;;;;;;1.39;89.82;101643.72;5220063;28;20032;-73
2022/02/13 02:31:38;;;;;;;7.45;5.95;;;;;;;1.38;89.59;101646.38;5219951;28;20029;-73
2022/02/13 02:34:09;;;;;;;10.18;5.43;;;;;;;1.36;89.68;101641.22;5219443;28;20475;-73
2022/02/13 02:36:40;;;;;;;9.93;5.43;;;;;;;1.38;89.92;101636.03;5207878;28;20109;-73
2022/02/13 02:39:12;;;;;;;8.90;4.95;;;;;;;1.36;90.13;101627.50;5219950;28;20505;-73
2022/02/13 02:41:43;;;;;;;11.20;5.85;;;;;;;1.33;89.94;101612.13;5218395;28;20038;-73
2022/02/13 02:44:14;;;;;;;11.18;5.40;;;;;;;1.35;89.99;101618.06;5221312;28;20029;-73
2022/02/13 02:46:46;;;;;;;8.02;5.03;;;;;;;1.27;90.17;101597.69;5220500;28;20198;-74
2022/02/13 02:49:17;;;;;;;11.65;5.68;;;;;;;1.30;89.79;101600.16;5221598;28;20038;-73
2022/02/13 02:51:49;;;;;;;11.82;5.45;;;;;;;1.31;89.60;101588.94;5220496;28;20021;-74
2022/02/13 02:54:20;;;;;;;10.63;5.55;;;;;;;1.31;90.15;101591.50;5219987;28;20038;-73
2022/02/13 02:56:51;;;;;;;10.50;5.15;;;;;;;1.30;90.62;101591.56;5218921;28;20605;-73
2022/02/13 02:59:23;;;;;;;9.43;5.43;;;;;;;1.28;90.38;101585.59;5219034;28;20064;-73
2022/02/13 03:01:55;;;;;;;9.02;5.40;;;;;;;1.29;90.76;101582.13;5219689;28;20432;-73
2022/02/13 03:04:26;;;;;;;9.52;5.60;;;;;;;1.28;90.28;101588.19;5217802;28;20229;-73
2022/02/13 03:06:57;;;;;;;10.38;5.40;;;;;;;1.28;90.37;101577.88;5217882;28;20178;-73
2022/02/13 03:09:28;;;;;;;9.63;5.05;;;;;;;1.28;90.54;101575.28;5217831;28;20033;-73
2022/02/13 03:12:00;;;;;;;12.10;5.25;;;;;;;1.24;90.64;101566.81;5217956;28;20078;-73
2022/02/13 03:14:31;;;;;;;10.85;5.28;;;;;;;1.25;90.44;101555.59;5220906;28;20293;-73
2022/02/13 03:17:06;;;;;;;10.68;5.25;;;;;;;1.24;91.23;101560.78;5220387;28;20039;-73
2022/02/13 03:19:38;;;;;;;11.65;5.43;;;;;;;1.23;90.80;101552.22;5218627;28;20365;-73
2022/02/13 03:22:09;;;;;;;7.63;4.47;;;;;;;1.25;90.64;101547.84;5217443;28;20520;-73
2022/02/13 03:24:41;;;;;;;9.98;5.22;;;;;;;1.24;91.00;101550.47;5220192;28;20052;-73
2022/02/13 03:27:12;;;;;;;11.75;5.85;;;;;;;1.25;90.63;101545.28;5217603;28;20036;-73
2022/02/13 03:29:43;;;;;;;8.70;5.07;;;;;;;1.27;90.65;101551.22;5220801;28;20486;-73
2022/02/13 03:32:14;;;;;;;8.45;4.75;;;;;;;1.29;90.93;101551.16;5218636;28;20026;-73
2022/02/13 03:34:46;;;;;;;9.38;4.97;;;;;;;1.29;90.13;101546.84;5221000;28;20055;-73
2022/02/13 03:37:17;;;;;;;9.15;5.00;;;;;;;1.28;89.69;101545.16;5222382;28;20022;-73
2022/02/13 03:39:48;;;;;;;7.90;4.88;;;;;;;1.29;90.64;101535.66;5217796;28;20034;-73
2022/02/13 03:42:19;;;;;;;9.48;4.95;;;;;;;1.29;90.59;101530.50;5218777;28;20534;-73
2022/02/13 03:44:51;;;;;;;9.25;5.22;;;;;;;1.28;90.61;101521.06;5220358;28;20426;-73
2022/02/13 03:47:23;;;;;;;7.32;4.38;;;;;;;1.30;90.09;101525.31;5216264;28;20399;-73
2022/02/13 03:49:54;;;;;;;11.27;5.13;;;;;;;1.30;89.99;101521.88;5220368;28;20785;-73
2022/02/13 03:52:27;;;;;;;10.50;5.38;;;;;;;1.31;90.17;101528.72;5220637;28;20025;-73
2022/02/13 03:55:01;;;;;;;9.50;5.30;;;;;;;1.31;89.66;101529.56;5217746;28;20076;-73
2022/02/13 03:57:33;;;;;;;10.95;5.15;;;;;;;1.28;89.82;101524.50;5220940;28;20037;-73
2022/02/13 04:00:07;;;;;;;9.35;5.00;;;;;;;1.30;90.07;101527.88;5204151;28;20029;-73
2022/02/13 04:02:40;;;;;;;7.25;4.22;;;;;;;1.30;90.33;101529.63;5218839;28;20037;-73
2022/02/13 04:05:11;;;;;;;6.90;4.33;;;;;;;1.28;89.73;101524.50;5218844;28;20026;-73
2022/02/13 04:07:43;;;;;;;6.85;4.47;;;;;;;1.31;90.35;101523.56;5201195;28;20028;-73
2022/02/13 04:10:14;;;;;;;11.35;4.97;;;;;;;1.29;90.17;101508.13;5218348;28;20025;-73
2022/02/13 04:12:46;;;;;;;10.15;5.00;;;;;;;1.27;90.08;101507.34;5221628;28;20029;-73
2022/02/13 04:15:17;;;;;;;11.65;4.80;;;;;;;1.26;90.44;101505.66;5218809;28;20029;-73
2022/02/13 04:17:48;;;;;;;8.30;4.82;;;;;;;1.27;90.00;101498.75;5216747;28;20045;-73
2022/02/13 04:20:22;;;;;;;6.95;4.50;;;;;;;1.30;90.28;101499.50;5218057;28;20029;-73
2022/02/13 04:22:53;;;;;;;8.45;4.38;;;;;;;1.30;90.05;101493.47;5215879;28;20049;-73
2022/02/13 04:25:25;;;;;;;9.68;5.25;;;;;;;1.28;90.04;101477.19;5219533;28;20497;-73
2022/02/13 04:27:56;;;;;;;9.10;4.85;;;;;;;1.30;90.24;101478.84;5217599;28;20392;-73
2022/02/13 04:30:28;;;;;;;10.07;5.00;;;;;;;1.31;90.07;101477.09;5216658;28;20017;-73
2022/02/13 04:32:59;;;;;;;8.07;4.43;;;;;;;1.30;89.99;101471.09;5218136;28;20041;-73
2022/02/13 04:35:33;;;;;;;11.23;5.32;;;;;;;1.28;90.00;101472.88;5221962;28;20030;-73
2022/02/13 04:38:04;;;;;;;8.88;4.82;;;;;;;1.30;90.09;101463.34;5220241;28;20563;-73
2022/02/13 04:40:36;;;;;;;9.05;4.72;;;;;;;1.28;89.97;101459.13;5215883;28;20113;-73
2022/02/13 04:43:07;;;;;;;6.22;4.45;;;;;;;1.32;89.93;101463.28;5219739;28;20072;-73
2022/02/13 04:45:38;;;;;;;8.05;5.03;;;;;;;1.27;90.50;101460.03;5216915;28;20406;-73
2022/02/13 04:48:10;;;;;;;7.38;4.93;;;;;;;1.28;90.96;101464.28;5215409;28;20753;-73
2022/02/13 04:50:41;;;;;;;10.65;5.82;;;;;;;1.24;90.83;101460.13;5218755;28;20025;-73
2022/02/13 04:53:12;;;;;;;10.10;5.18;;;;;;;1.27;90.80;101462.63;5208198;28;20117;-73
2022/02/13 04:55:44;;;;;;;7.10;4.40;;;;;;;1.24;90.80;101460.97;5218817;28;20038;-73
2022/02/13 04:58:19;;;;;;;8.95;5.03;;;;;;;1.28;91.00;101477.19;5205953;28;20164;-73
2022/02/13 05:00:50;;;;;;;8.20;5.00;;;;;;;1.22;90.77;101475.69;5217684;28;20069;-73
2022/02/13 05:03:23;;;;;;;10.55;4.97;;;;;;;1.23;90.78;101463.63;5203513;28;20616;-73
2022/02/13 05:05:54;;;;;;;7.85;4.82;;;;;;;1.23;90.65;101458.47;5218797;28;20518;-73
2022/02/13 05:08:26;;;;;;;7.90;4.78;;;;;;;1.17;90.98;101446.59;5216425;28;20033;-73
2022/02/13 05:10:57;;;;;;;7.90;4.85;;;;;;;1.20;91.07;101451.66;5217322;28;20410;-73
2022/02/13 05:13:29;;;;;;;10.48;4.70;;;;;;;1.18;91.44;101448.31;5218584;28;20175;-74
2022/02/13 05:16:00;;;;;;;8.05;4.82;;;;;;;1.19;91.31;101447.41;5216317;28;20120;-74
2022/02/13 05:18:31;;;;;;;7.55;4.85;;;;;;;1.18;91.26;101451.72;5215149;28;20033;-74
2022/02/13 05:21:02;;;;;;;6.82;5.05;;;;;;;1.21;91.01;101448.16;5218952;28;20317;-74
2022/02/13 05:23:34;;;;;;;11.48;5.43;;;;;;;1.23;90.94;101445.56;5217326;28;20025;-74
2022/02/13 05:26:05;;;;;;;10.10;4.82;;;;;;;1.20;90.83;101438.75;5218053;28;20025;-74
2022/02/13 05:28:36;;;;;;;10.88;5.78;;;;;;;1.19;91.24;101440.50;5218468;28;20116;-74
2022/02/13 05:31:08;;;;;;;11.10;5.18;;;;;;;1.19;90.94;101442.25;5216962;28;20014;-74
2022/02/13 05:33:39;;;;;;;11.30;5.10;;;;;;;1.16;92.64;101437.19;5217201;28;20026;-74
2022/02/13 05:36:10;;;;;;;7.68;4.88;;;;;;;1.15;92.17;101427.78;5217325;28;20029;-74
2022/02/13 05:38:41;;;;;;;6.43;4.40;;;;;;;1.13;92.19;101425.22;5218551;28;20172;-74
2022/02/13 05:41:13;;;;;;;8.20;5.03;;;;;;;1.15;92.09;101426.03;5215675;28;20664;-74
2022/02/13 05:43:44;;;;;;;8.50;4.53;;;;;;;1.13;91.87;101425.22;5218953;28;20029;-74
2022/02/13 05:46:16;;;;;;;8.30;4.57;;;;;;;1.12;92.77;101412.38;5216303;28;20080;-74
2022/02/13 05:48:47;;;;;;;10.05;4.70;;;;;;;1.10;92.84;101416.75;5218228;28;20303;-72
2022/02/13 05:51:18;;;;;;;8.82;4.85;;;;;;;1.12;93.22;101410.66;5216660;28;20026;-72
2022/02/13 05:53:50;;;;;;;7.57;4.90;;;;;;;1.08;92.75;101408.25;5216171;28;20037;-72
2022/02/13 05:56:23;;;;;;;8.98;5.00;;;;;;;1.13;92.77;101408.91;5215625;28;20056;-72
2022/02/13 05:58:54;;;;;;;9.07;4.97;;;;;;;1.17;92.47;101402.72;5217077;28;20033;-72
2022/02/13 06:01:25;;;;;;;7.38;5.15;;;;;;;1.15;92.79;101392.47;5217035;28;20327;-71
2022/02/13 06:03:57;;;;;;;9.13;4.65;;;;;;;1.18;92.84;101392.38;5203209;28;20033;-72
2022/02/13 06:06:28;;;;;;;8.45;4.65;;;;;;;1.18;92.39;101394.94;5216924;28;20204;-72
2022/02/13 06:08:59;;;;;;;7.70;5.07;;;;;;;1.17;92.81;101397.56;5216227;28;20451;-72
2022/02/13 06:11:30;;;;;;;7.90;5.20;;;;;;;1.17;92.81;101382.91;5218144;28;20026;-72
2022/02/13 06:14:02;;;;;;;7.85;5.15;;;;;;;1.21;93.08;101374.19;5207555;28;20289;-72
2022/02/13 06:16:33;;;;;;;7.90;5.72;;;;;;;1.11;92.30;101354.78;5199689;28;20080;-72
2022/02/13 06:19:05;;;;;;;8.50;4.80;;;;;;;1.21;92.73;101365.59;5217014;28;20476;-72
2022/02/13 06:21:37;;;;;;;9.32;4.85;;;;;;;1.18;92.70;101363.16;5215429;28;20045;-72
2022/02/13 06:24:08;;;;;;;10.55;5.00;;;;;;;1.09;93.04;101348.81;5217734;28;20033;-73
2022/02/13 06:26:39;;;;;;;8.80;4.82;;;;;;;1.25;92.67;101369.75;5215333;28;20241;-72
2022/02/13 06:29:11;;;;;;;7.07;5.20;;;;;;;1.25;92.97;101359.44;5213319;28;20057;-72
2022/02/13 06:31:42;;;;;;;9.68;5.78;;;;;;;1.24;92.85;101351.72;5215225;28;20025;-72
2022/02/13 06:34:13;;;;;;;7.88;4.80;;;;;;;1.27;92.72;101357.63;5220720;28;20037;-72
2022/02/13 06:36:45;;;;;;;9.63;5.07;;;;;;;1.28;92.50;101348.13;5220424;28;20022;-73
2022/02/13 06:39:16;;;;;;;7.82;5.03;;;;;;;1.29;92.75;101345.50;5219753;28;20459;-72
2022/02/13 06:41:47;;;;;;;7.50;5.15;;;;;;;1.29;92.44;101348.09;5219047;28;20581;-72
2022/02/13 06:44:19;;;;;;;8.60;5.43;;;;;;;1.31;92.70;101354.03;5219706;28;20013;-73
2022/02/13 06:46:50;;;;;;;9.93;5.25;;;;;;;1.32;92.36;101355.69;5217391;28;20573;-73
2022/02/13 06:49:21;;;;;;;8.23;4.70;;;;;;;1.30;91.69;101341.19;5202247;28;20475;-73
2022/02/13 06:51:53;;;;;;;8.15;5.72;;;;;;;1.40;92.15;101350.25;5220904;28;20045;-72
2022/02/13 06:54:24;;;;;;;7.03;4.68;;;;;;;1.45;91.82;101350.94;5212266;28;20518;-72
2022/02/13 06:56:55;;;;;;;8.20;4.80;;;;;;;1.46;91.61;101340.53;5220956;28;20508;-72
2022/02/13 06:59:27;;;;;;;9.40;5.57;;;;;;;1.50;91.35;101332.66;5219344;28;20091;-72
2022/02/13 07:01:58;;;;;;;6.97;4.68;;;;;;;1.54;91.15;101337.66;5202995;28;20124;-72
2022/02/13 07:04:29;;;;;;;8.70;5.22;;;;;;;1.57;90.99;101329.78;5219185;28;20030;-73
2022/02/13 07:07:01;;;;;;;7.47;5.22;;;;;;;1.60;90.97;101332.25;5217290;28;20033;-73
2022/02/13 07:09:33;;;;;;;9.07;5.15;;;;;;;1.63;91.14;101334.72;5218558;28;20293;-74
2022/02/13 07:12:05;;;;;;;8.10;4.80;;;;;;;1.66;90.20;101329.41;5218868;28;20021;-72
2022/02/13 07:14:37;;;;;;;7.88;4.35;;;;;;;1.73;90.35;101322.25;5221106;28;20030;-72
2022/02/13 07:17:09;;;;;;;8.73;5.07;;;;;;;1.76;89.89;101324.72;5217368;28;20037;-73
2022/02/13 07:19:40;;;;;;;8.77;5.22;;;;;;;1.81;89.28;101320.19;5216760;28;20299;-74
2022/02/13 07:22:11;;;;;;;7.38;4.53;;;;;;;1.81;90.40;101321.94;5219339;28;20083;-73
2022/02/13 07:24:42;;;;;;;8.05;5.45;;;;;;;1.90;89.44;101327.59;5220899;28;20091;-74
2022/02/13 07:27:14;;;;;;;7.32;4.65;;;;;;;1.95;89.40;101332.56;5216852;28;20024;-73
2022/02/13 07:29:45;;;;;;;7.78;4.70;;;;;;;1.97;88.69;101319.56;5218186;28;20025;-74
2022/02/13 07:32:16;;;;;;;9.60;4.53;;;;;;;2.07;89.57;101326.03;5220254;28;20391;-74
2022/02/13 07:34:47;;;;;;;7.53;5.07;;;;;;;2.13;88.92;101325.81;5221254;28;20265;-74
2022/02/13 07:37:19;;;;;;;8.48;4.93;;;;;;;2.16;89.19;101321.34;5216378;28;20061;-74
2022/02/13 07:39:50;;;;;;;8.60;5.15;;;;;;;2.24;89.29;101320.19;5219608;28;20033;-73
2022/02/13 07:42:22;;;;;;;6.30;4.65;;;;;;;2.29;88.95;101324.25;5217528;28;20579;-72
2022/02/13 07:44:53;;;;;;;9.82;4.65;;;;;;;2.33;88.75;101318.03;5217955;28;20570;-72
2022/02/13 07:47:25;;;;;;;7.32;4.97;;;;;;;2.43;88.26;101324.50;5219256;28;20032;-72
2022/02/13 07:49:56;;;;;;;8.77;5.20;;;;;;;2.48;87.45;101324.28;5217932;28;20742;-74
2022/02/13 07:52:27;;;;;;;8.77;4.60;;;;;;;2.55;87.26;101330.88;5218630;28;20022;-73
2022/02/13 07:54:58;;;;;;;8.18;4.80;;;;;;;2.60;87.67;101309.97;5216552;28;20112;-73
2022/02/13 07:57:30;;;;;;;8.52;5.13;;;;;;;2.69;87.66;101317.34;5218282;28;20034;-73
2022/02/13 08:00:02;;;;;;;9.82;5.05;;;;;;;2.72;87.14;101317.19;5217637;28;20115;-73
2022/02/13 08:02:35;;;;;;;7.32;4.50;;;;;;;2.75;86.41;101316.22;5219871;28;20033;-72
2022/02/13 08:05:06;;;;;;;;;;;;;;;3.11;85.18;101309.38;5220725;28;20526;-73
2022/02/13 08:07:48;;;;;;;8.07;5.15;;;;;;;2.95;86.65;101320.50;5218847;28;19923;-73
2022/02/13 08:10:19;;;;;;;8.90;5.00;;;;;;;2.92;86.55;101318.91;5216765;28;20268;-73
2022/02/13 08:12:51;;;;;;;8.88;5.50;;;;;;;2.99;85.70;101319.44;5209723;28;20033;-73
2022/02/13 08:15:22;;;;;;;9.48;5.40;;;;;;;3.04;86.14;101310.56;5216753;28;20140;-73
2022/02/13 08:17:53;;;;;;;7.93;4.85;;;;;;;3.07;85.88;101319.94;5217505;28;20044;-73
2022/02/13 08:20:24;;;;;;;8.90;5.75;;;;;;;3.14;86.03;101313.56;5221552;28;20459;-73
2022/02/13 08:22:56;;;;;;;8.43;5.60;;;;;;;3.15;85.12;101310.94;5218171;28;20217;-73
2022/02/13 08:25:27;;;;;;;8.55;4.70;;;;;;;3.23;85.11;101315.75;5219740;28;20026;-73
2022/02/13 08:27:59;;;;;;;7.97;4.90;;;;;;;3.28;85.41;101312.94;5217063;28;20124;-73
2022/02/13 08:30:30;;;;;;;8.63;5.45;;;;;;;3.28;84.79;101303.41;5222715;28;20482;-73
2022/02/13 08:33:02;;;;;;;8.10;5.47;;;;;;;3.36;84.54;101309.06;5217785;28;20029;-73
2022/02/13 08:35:33;;;;;;;9.18;5.25;;;;;;;3.36;84.79;101303.88;5220611;28;20022;-75
2022/02/13 08:38:05;;;;;;;8.75;5.10;;;;;;;3.42;85.16;101306.19;5219144;28;20514;-74
2022/02/13 08:40:36;;;;;;;11.80;5.72;;;;;;;3.48;83.91;101301.63;5218353;28;20253;-74
2022/02/13 08:43:08;;;;;;;8.75;5.07;;;;;;;3.56;84.38;101289.13;5219499;28;20387;-74
2022/02/13 08:45:40;;;;;;;9.70;5.60;;;;;;;3.56;83.89;101290.00;5219759;28;20036;-74
2022/02/13 08:48:12;;;;;;;6.93;5.10;;;;;;;3.64;84.30;101281.84;5217133;28;20392;-74
2022/02/13 08:50:43;;;;;;;9.85;5.22;;;;;;;3.62;83.45;101281.91;5216970;28;20360;-74
2022/02/13 08:53:14;;;;;;;9.30;5.75;;;;;;;3.68;83.23;101282.56;5218288;28;20018;-73
2022/02/13 08:55:46;;;;;;;7.97;4.70;;;;;;;3.68;83.80;101295.50;5218317;28;20104;-73
2022/02/13 08:58:17;;;;;;;9.15;5.80;;;;;;;3.61;83.96;101282.84;5217568;28;20453;-74
2022/02/13 09:00:49;;;;;;;6.93;5.07;;;;;;;3.70;83.89;101273.75;5216638;28;20029;-73
2022/02/13 09:03:20;;;;;;;7.13;5.00;;;;;;;3.80;83.49;101271.56;5217234;28;20501;-73
2022/02/13 09:05:51;;;;;;;8.43;4.93;;;;;;;3.83;84.12;101272.25;5216631;28;20034;-74
2022/02/13 09:08:22;;;;;;;6.05;4.72;;;;;;;3.89;83.27;101260.72;5218379;28;20029;-74
2022/02/13 09:10:54;;;;;;;7.07;5.22;;;;;;;3.84;83.18;101254.94;5217982;28;20033;-74
2022/02/13 09:13:25;;;;;;;6.57;4.90;;;;;;;3.94;83.10;101263.94;5216234;28;20061;-74
2022/02/13 09:15:56;;;;;;;8.80;4.95;;;;;;;3.99;83.39;101253.34;5216588;28;20037;-74
2022/02/13 09:18:27;;;;;;;7.85;5.38;;;;;;;4.01;83.00;101229.00;5217255;28;20037;-75
2022/02/13 09:20:59;;;;;;;9.60;5.07;;;;;;;4.09;82.49;101232.06;5218873;28;20388;-73
2022/02/13 09:23:30;;;;;;;9.05;5.43;;;;;;;4.18;82.89;101215.19;5218786;28;20033;-73
2022/02/13 09:26:01;;;;;;;9.25;4.90;;;;;;;4.25;82.38;101210.53;5215404;28;20047;-75
2022/02/13 09:28:33;;;;;;;7.32;4.82;;;;;;;4.35;82.11;101219.47;5214555;28;20401;-74
2022/02/13 09:31:04;;;;;;;8.65;5.40;;;;;;;4.39;81.63;101213.19;5219351;28;20455;-73
2022/02/13 09:33:35;;;;;;;7.15;4.63;;;;;;;4.48;81.50;101204.09;5215408;28;20510;-73
2022/02/13 09:36:07;;;;;;;8.77;4.97;;;;;;;4.57;81.08;101212.22;5216792;28;20028;-74
2022/02/13 09:38:38;;;;;;;11.02;5.47;;;;;;;4.62;81.19;101215.44;5217295;28;20017;-74
2022/02/13 09:41:10;;;;;;;7.07;5.30;;;;;;;4.74;80.63;101206.13;5219096;28;20025;-74
2022/02/13 09:43:43;;;;;;;6.50;4.82;;;;;;;4.73;81.36;101195.81;5217491;28;20097;-74
2022/02/13 09:46:16;;;;;;;6.75;4.90;;;;;;;4.80;80.91;101192.81;5216964;28;20026;-74
2022/02/13 09:48:51;;;;;;;7.50;5.15;;;;;;;4.95;80.76;101195.47;5217467;28;20061;-74
2022/02/13 09:51:23;;;;;;;6.85;5.20;;;;;;;5.03;80.14;101188.09;5217479;28;20670;-74
2022/02/13 09:53:54;;;;;;;6.63;4.65;;;;;;;5.06;80.00;101182.72;5217340;28;20441;-74
2022/02/13 09:56:25;;;;;;;6.70;4.65;;;;;;;5.10;79.61;101179.88;5217448;28;20033;-74
2022/02/13 09:58:57;;;;;;;7.10;4.55;;;;;;;5.24;79.42;101175.66;5217134;28;20038;-74
2022/02/13 10:01:37;;;;;;;6.90;4.80;;;;;;;5.31;79.21;101177.00;5215368;28;20033;-74
2022/02/13 10:04:12;;;;;;;8.45;5.15;;;;;;;5.31;79.07;101170.03;5217689;28;20084;-74
2022/02/13 10:06:43;;;;;;;6.57;4.57;;;;;;;5.45;78.30;101168.38;5217117;28;20033;-73
2022/02/13 10:09:15;;;;;;;7.28;4.85;;;;;;;5.56;78.08;101151.22;5219390;28;20395;-74
2022/02/13 10:11:46;;;;;;;7.53;4.72;;;;;;;5.60;77.85;101151.88;5219764;28;20345;-74
2022/02/13 10:14:17;;;;;;;7.85;5.03;;;;;;;5.69;77.56;101148.75;5222361;28;20021;-74
2022/02/13 10:16:52;;;;;;;7.47;4.47;;;;;;;5.80;77.35;101140.31;5219311;28;20030;-75
2022/02/13 10:19:25;;;;;;;8.52;4.88;;;;;;;5.81;77.42;101134.19;5220053;28;20033;-73
2022/02/13 10:21:59;;;;;;;7.33;4.90;;;;;;;5.96;77.00;101137.66;5219472;28;20046;-74
2022/02/13 10:24:36;;;;;;;6.35;4.32;;;;;;;6.15;76.44;101137.38;5219309;28;20033;-74
2022/02/13 10:27:11;;;;;;;7.80;4.78;;;;;;;6.22;75.90;101128.25;5218802;28;20092;-73
2022/02/13 10:29:44;;;;;;;7.32;4.40;;;;;;;6.31;76.19;101123.31;5217368;28;20504;-74
2022/02/13 10:32:17;;;;;;;8.00;5.18;;;;;;;6.32;75.79;101129.34;5218714;28;20033;-74
2022/02/13 10:35:09;;;;;;;7.20;4.45;;;;;;;6.53;75.95;101142.78;5221788;28;20034;-74
2022/02/13 10:37:58;;;;;;;8.02;4.80;;;;;;;6.60;75.56;101136.28;5219702;28;20025;-74
2022/02/13 10:40:32;;;;;;;8.13;5.13;;;;;;;6.54;75.54;101136.66;5219606;28;20034;-74
2022/02/13 10:43:11;;;;;;;6.60;5.05;;;;;;;6.49;75.79;101110.91;5221470;28;20155;-74
2022/02/13 10:45:43;;;;;;;6.10;4.35;;;;;;;6.65;75.02;101128.16;5222100;28;20036;-74
2022/02/13 10:48:15;;;;;;;6.65;4.47;;;;;;;6.68;75.18;101121.00;5218461;28;20030;-74
2022/02/13 10:50:46;;;;;;;9.13;4.60;;;;;;;6.82;75.24;101122.72;5220989;28;20483;-74
2022/02/13 10:53:18;;;;;;;6.45;4.38;;;;;;;6.90;75.12;101128.25;5219074;28;20060;-74
2022/02/13 10:55:49;;;;;;;5.40;4.20;;;;;;;6.98;74.55;101122.56;5221137;28;20045;-74
2022/02/13 10:58:21;;;;;;;8.13;5.10;;;;;;;7.08;74.25;101113.19;5219655;28;20037;-74
2022/02/13 11:01:00;;;;;;;6.30;4.32;;;;;;;7.21;74.66;101108.00;5209617;28;20022;-74
2022/02/13 11:03:33;;;;;;;7.00;5.13;;;;;;;7.29;74.80;101108.34;5220521;28;20029;-74
2022/02/13 11:06:06;;;;;;;6.60;4.63;;;;;;;7.39;73.71;101095.53;5221913;28;20048;-74
2022/02/13 11:08:42;;;;;;;6.20;4.65;;;;;;;7.55;73.92;101080.50;5223230;28;20386;-74
2022/02/13 11:11:14;;;;;;;8.23;5.13;;;;;;;7.57;72.73;101073.41;5219696;28;20030;-74
2022/02/13 11:13:46;;;;;;;6.32;4.63;;;;;;;7.63;71.94;101073.00;5224509;28;20025;-74
2022/02/13 11:16:49;;;;;;;6.35;4.47;;;;;;;7.85;71.78;101053.25;5220468;28;20098;-74
2022/02/13 11:19:21;;;;;;;7.50;5.45;;;;;;;7.82;71.45;101053.47;5173555;28;20049;-74
2022/02/13 11:21:53;;;;;;;6.25;4.40;;;;;;;7.86;71.46;101047.91;5221505;28;20071;-74
2022/02/13 11:24:25;;;;;;;6.70;4.63;;;;;;;7.97;71.04;101055.00;5219831;28;20460;-74
2022/02/13 11:27:01;;;;;;;7.78;4.82;;;;;;;7.99;70.38;101045.28;5218976;28;20084;-74
2022/02/13 11:29:53;;;;;;;7.40;4.55;;;;;;;8.07;70.24;101039.50;5216569;28;20022;-74
2022/02/13 11:32:35;;;;;;;5.90;4.20;;;;;;;8.12;70.93;101032.22;5221481;28;20052;-74
2022/02/13 11:35:08;;;;;;;7.13;4.30;;;;;;;8.15;71.38;101021.56;5222454;28;20029;-73
2022/02/13 11:37:41;;;;;;;5.85;4.35;;;;;;;8.12;70.14;101029.59;5223507;28;20109;-74
2022/02/13 11:40:34;;;;;;;7.03;4.57;;;;;;;8.29;69.86;101021.38;5221808;28;20030;-74
2022/02/13 11:43:07;;;;;;;6.32;4.30;;;;;;;8.23;69.68;101007.00;5219765;28;20057;-74
2022/02/13 11:45:46;;;;;;;6.50;4.45;;;;;;;8.27;70.37;100999.78;5220588;28;20155;-74
2022/02/13 11:48:33;;;;;;;5.75;4.07;;;;;;;8.43;69.42;101005.56;5222506;28;20399;-74
2022/02/13 11:51:07;;;;;;;8.48;4.28;;;;;;;8.53;68.92;101001.34;5221573;28;20024;-74
2022/02/13 11:53:44;;;;;;;6.03;4.00;;;;;;;8.53;67.57;100998.75;5220537;28;20026;-74
2022/02/13 11:56:26;;;;;;;6.78;4.30;;;;;;;8.75;67.25;100986.69;5225016;28;20115;-74